createdAt,value
2023-02-11T00:01:30.711Z,35.23
2023-02-11T00:03:57.097Z,36.57
2023-02-11T00:06:23.455Z,40.04
2023-02-11T00:08:49.843Z,36.90
2023-02-11T00:11:16.241Z,35.36
2023-02-11T00:13:42.618Z,34.44
2023-02-11T00:16:09.054Z,34.82
2023-02-11T00:18:35.437Z,33.89
2023-02-11T00:21:01.855Z,34.64
2023-02-11T00:23:28.239Z,34.30
2023-02-11T00:25:54.626Z,35.20
2023-02-11T00:28:21.280Z,35.99
2023-02-11T00:30:47.773Z,36.23
2023-02-11T00:33:14.199Z,35.18
2023-02-11T00:35:40.595Z,35.67
2023-02-11T00:38:07.012Z,37.01
2023-02-11T00:40:33.396Z,34.62
2023-02-11T00:42:59.837Z,35.30
2023-02-11T00:45:26.199Z,36.07
2023-02-11T00:47:53.937Z,36.07
2023-02-11T00:50:20.313Z,35.38
2023-02-11T00:52:46.698Z,35.81
2023-02-11T00:55:13.094Z,35.58
2023-02-11T00:57:39.455Z,36.11
2023-02-11T01:00:05.890Z,35.49
2023-02-11T01:02:32.272Z,35.29
2023-02-11T01:04:58.699Z,35.32
2023-02-11T01:07:25.142Z,36.30
2023-02-11T01:09:51.532Z,36.43
2023-02-11T01:12:17.931Z,36.61
2023-02-11T01:14:44.320Z,36.75
2023-02-11T01:17:10.697Z,37.47
2023-02-11T01:19:37.101Z,35.65
2023-02-11T01:22:03.491Z,35.47
2023-02-11T01:24:29.890Z,35.00
2023-02-11T01:26:56.298Z,34.76
2023-02-11T01:29:22.706Z,35.11
2023-02-11T01:31:49.151Z,34.18
2023-02-11T01:34:15.573Z,33.60
2023-02-11T01:36:42.002Z,33.75
2023-02-11T01:39:08.400Z,32.53
2023-02-11T01:41:34.780Z,32.91
2023-02-11T01:44:01.149Z,31.73
2023-02-11T01:46:27.598Z,31.99
2023-02-11T01:48:54.063Z,30.96
2023-02-11T01:51:20.550Z,30.97
2023-02-11T01:53:46.954Z,30.52
2023-02-11T01:56:13.319Z,30.39
2023-02-11T01:58:39.713Z,30.67
2023-02-11T02:01:06.074Z,31.72
2023-02-11T02:03:32.494Z,31.03
2023-02-11T02:05:58.946Z,31.02
2023-02-11T02:08:25.345Z,31.76
2023-02-11T02:10:51.764Z,32.25
2023-02-11T02:13:18.137Z,32.25
2023-02-11T02:15:44.567Z,32.73
2023-02-11T02:18:11.051Z,32.24
2023-02-11T02:20:37.526Z,33.17
2023-02-11T02:23:03.934Z,34.09
2023-02-11T02:25:30.306Z,33.77
2023-02-11T02:27:56.776Z,35.06
2023-02-11T02:30:23.192Z,33.64
2023-02-11T02:32:49.590Z,34.07
2023-02-11T02:35:16.048Z,33.48
2023-02-11T02:37:42.464Z,33.47
2023-02-11T02:40:08.867Z,32.22
2023-02-11T02:42:35.241Z,33.15
2023-02-11T02:45:01.641Z,33.15
2023-02-11T02:47:28.025Z,31.92
2023-02-11T02:49:54.417Z,32.46
2023-02-11T02:52:20.808Z,33.15
2023-02-11T02:54:47.173Z,34.60
2023-02-11T02:57:13.588Z,33.33
2023-02-11T02:59:39.962Z,34.48
2023-02-11T03:02:06.333Z,35.42
2023-02-11T03:04:32.706Z,36.66
2023-02-11T03:06:59.065Z,37.53
2023-02-11T03:09:25.452Z,35.98
2023-02-11T03:11:51.831Z,35.75
2023-02-11T03:14:18.220Z,36.47
2023-02-11T03:16:44.579Z,36.41
2023-02-11T03:19:11.016Z,35.65
2023-02-11T03:21:37.399Z,34.55
2023-02-11T03:24:03.773Z,34.83
2023-02-11T03:26:30.197Z,34.99
2023-02-11T03:28:56.566Z,33.60
2023-02-11T03:31:23.077Z,34.89
2023-02-11T03:33:49.576Z,34.23
2023-02-11T03:36:15.955Z,31.69
2023-02-11T03:38:42.335Z,32.26
2023-02-11T03:41:08.751Z,32.83
2023-02-11T03:43:35.141Z,32.66
2023-02-11T03:46:01.602Z,32.02
2023-02-11T03:48:28.029Z,32.15
2023-02-11T03:50:54.397Z,31.51
2023-02-11T03:53:20.777Z,31.89
2023-02-11T03:55:47.149Z,32.05
2023-02-11T03:58:13.529Z,30.08
2023-02-11T04:00:39.955Z,31.26
2023-02-11T04:03:06.372Z,30.62
2023-02-11T04:05:32.926Z,30.92
2023-02-11T04:07:59.308Z,31.34
2023-02-11T04:10:25.703Z,30.98
2023-02-11T04:12:52.080Z,31.81
2023-02-11T04:15:18.516Z,32.33
2023-02-11T04:17:44.908Z,32.83
2023-02-11T04:20:11.311Z,32.31
2023-02-11T04:22:37.692Z,32.31
2023-02-11T04:25:04.076Z,31.94
2023-02-11T04:27:30.464Z,32.62
2023-02-11T04:29:56.837Z,31.89
2023-02-11T04:32:23.290Z,32.78
2023-02-11T04:34:49.680Z,32.81
2023-02-11T04:37:16.072Z,32.37
2023-02-11T04:39:42.441Z,31.84
2023-02-11T04:42:08.806Z,32.50
2023-02-11T04:44:35.224Z,32.53
2023-02-11T04:47:01.613Z,33.70
2023-02-11T04:49:28.034Z,33.11
2023-02-11T04:51:54.462Z,33.00
2023-02-11T04:54:20.852Z,32.96
2023-02-11T04:56:47.278Z,32.68
2023-02-11T04:59:13.686Z,33.00
2023-02-11T05:01:40.149Z,34.29
2023-02-11T05:04:06.634Z,33.00
2023-02-11T05:06:33.069Z,32.65
2023-02-11T05:08:59.458Z,32.36
2023-02-11T05:11:25.836Z,32.70
2023-02-11T05:13:52.256Z,32.10
2023-02-11T05:16:18.713Z,32.71
2023-02-11T05:18:45.175Z,32.32
2023-02-11T05:21:11.583Z,32.24
2023-02-11T05:23:37.992Z,31.07
2023-02-11T05:26:04.401Z,30.69
2023-02-11T05:28:30.844Z,30.24
2023-02-11T05:30:57.289Z,29.59
2023-02-11T05:33:23.678Z,30.23
2023-02-11T05:35:50.325Z,30.85
2023-02-11T05:38:16.902Z,30.51
2023-02-11T05:40:43.277Z,30.58
2023-02-11T05:43:09.662Z,30.68
2023-02-11T05:45:36.109Z,30.65
2023-02-11T05:48:02.502Z,30.16
2023-02-11T05:50:28.878Z,29.86
2023-02-11T05:52:55.324Z,29.56
2023-02-11T05:55:24.615Z,29.84
2023-02-11T05:57:51.049Z,30.12
2023-02-11T06:00:17.443Z,30.00
2023-02-11T06:02:44.092Z,29.62
2023-02-11T06:05:10.552Z,29.44
2023-02-11T06:07:36.949Z,30.06
2023-02-11T06:10:03.352Z,29.43
2023-02-11T06:12:29.750Z,30.96
2023-02-11T06:14:56.132Z,30.17
2023-02-11T06:17:22.517Z,30.77
2023-02-11T06:19:48.912Z,30.10
2023-02-11T06:22:15.323Z,30.40
2023-02-11T06:25:00.205Z,29.23
2023-02-11T06:27:27.540Z,31.02
2023-02-11T06:29:53.927Z,31.24
2023-02-11T06:32:37.256Z,31.05
2023-02-11T06:35:06.181Z,30.52
2023-02-11T06:37:32.549Z,30.50
2023-02-11T06:39:58.896Z,30.67
2023-02-11T06:42:25.315Z,30.69
2023-02-11T06:44:51.728Z,30.40
2023-02-11T06:47:18.112Z,30.30
2023-02-11T06:49:44.464Z,31.02
2023-02-11T06:52:10.880Z,30.52
2023-02-11T06:54:37.243Z,30.41
2023-02-11T06:57:03.634Z,30.48
2023-02-11T06:59:30.036Z,30.42
2023-02-11T07:01:56.476Z,29.87
2023-02-11T07:04:22.902Z,29.96
2023-02-11T07:06:49.293Z,29.96
2023-02-11T07:09:15.696Z,31.72
2023-02-11T07:11:42.082Z,31.19
2023-02-11T07:14:08.496Z,30.96
2023-02-11T07:16:34.962Z,30.94
2023-02-11T07:19:01.360Z,30.74
2023-02-11T07:21:27.778Z,30.72
2023-02-11T07:23:54.162Z,30.73
2023-02-11T07:26:20.525Z,31.84
2023-02-11T07:28:46.897Z,33.12
2023-02-11T07:31:13.448Z,33.33
2023-02-11T07:33:39.912Z,32.90
2023-02-11T07:36:06.286Z,33.46
2023-02-11T07:38:32.661Z,33.51
2023-02-11T07:40:59.088Z,34.15
2023-02-11T07:43:25.465Z,35.68
2023-02-11T07:45:51.994Z,34.62
2023-02-11T07:48:18.495Z,35.54
2023-02-11T07:50:44.898Z,35.82
2023-02-11T07:53:11.286Z,36.88
2023-02-11T07:55:37.662Z,36.99
2023-02-11T07:58:04.029Z,37.27
2023-02-11T08:00:31.784Z,36.83
2023-02-11T08:02:58.155Z,37.26
2023-02-11T08:05:24.527Z,32.43
2023-02-11T08:07:50.962Z,36.41
2023-02-11T08:10:17.359Z,36.56
2023-02-11T08:12:43.737Z,37.81
2023-02-11T08:15:10.127Z,37.62
2023-02-11T08:17:36.505Z,37.96
2023-02-11T08:20:02.885Z,39.27
2023-02-11T08:22:29.355Z,40.64
2023-02-11T08:24:55.707Z,40.38
2023-02-11T08:27:22.074Z,41.30
2023-02-11T08:29:48.484Z,41.66
2023-02-11T08:32:14.889Z,40.40
2023-02-11T08:34:41.300Z,40.81
2023-02-11T08:37:07.702Z,41.41
2023-02-11T08:39:34.100Z,41.34
2023-02-11T08:42:00.489Z,44.66
2023-02-11T08:44:26.875Z,45.37
2023-02-11T08:46:53.267Z,45.82
2023-02-11T08:49:19.660Z,46.50
2023-02-11T08:51:46.100Z,48.80
2023-02-11T08:54:12.495Z,49.50
2023-02-11T08:56:38.978Z,52.78
2023-02-11T08:59:05.405Z,48.37
2023-02-11T09:01:31.899Z,50.33
2023-02-11T09:03:58.367Z,48.90
2023-02-11T09:06:24.756Z,48.47
2023-02-11T09:08:51.125Z,47.17
2023-02-11T09:11:17.501Z,47.07
2023-02-11T09:13:43.917Z,48.15
2023-02-11T09:16:10.393Z,46.95
2023-02-11T09:18:36.781Z,46.64
2023-02-11T09:21:03.181Z,46.15
2023-02-11T09:23:29.612Z,45.58
2023-02-11T09:25:55.999Z,46.06
2023-02-11T09:28:22.470Z,44.36
2023-02-11T09:30:48.981Z,45.98
2023-02-11T09:33:15.518Z,46.77
2023-02-11T09:35:41.929Z,45.62
2023-02-11T09:38:08.354Z,45.75
2023-02-11T09:40:34.719Z,46.19
2023-02-11T09:43:04.019Z,44.05
2023-02-11T09:45:30.593Z,43.82
2023-02-11T09:47:56.971Z,42.87
2023-02-11T09:50:23.364Z,43.44
2023-02-11T09:52:49.825Z,43.16
2023-02-11T09:55:16.178Z,43.80
2023-02-11T09:57:42.569Z,45.63
2023-02-11T10:00:08.952Z,46.08
2023-02-11T10:02:35.368Z,47.31
2023-02-11T10:05:01.773Z,47.63
2023-02-11T10:07:28.138Z,47.55
2023-02-11T10:09:54.532Z,49.47
2023-02-11T10:12:20.937Z,47.98
2023-02-11T10:14:47.308Z,50.90
2023-02-11T10:17:13.750Z,48.93
2023-02-11T10:19:40.110Z,48.52
2023-02-11T10:22:06.496Z,48.29
2023-02-11T10:24:32.879Z,47.74
2023-02-11T10:26:59.251Z,48.59
2023-02-11T10:29:25.646Z,48.57
2023-02-11T10:31:52.047Z,48.82
2023-02-11T10:34:18.475Z,48.78
2023-02-11T10:36:44.851Z,48.41
2023-02-11T10:39:11.264Z,48.86
2023-02-11T10:41:37.657Z,48.36
2023-02-11T10:44:04.043Z,47.40
2023-02-11T10:46:30.467Z,48.65
2023-02-11T10:48:56.848Z,48.83
2023-02-11T10:51:23.211Z,47.67
2023-02-11T10:53:49.601Z,47.81
2023-02-11T10:56:15.968Z,48.32
2023-02-11T10:58:42.385Z,48.79
2023-02-11T11:01:23.412Z,49.00
2023-02-11T11:03:50.886Z,48.78
2023-02-11T11:06:17.258Z,50.12
2023-02-11T11:08:43.645Z,50.25
2023-02-11T11:11:10.114Z,51.80
2023-02-11T11:13:36.518Z,53.16
2023-02-11T11:16:02.988Z,50.77
2023-02-11T11:18:29.385Z,49.14
2023-02-11T11:20:55.829Z,49.16
2023-02-11T11:23:22.205Z,48.94
2023-02-11T11:25:48.561Z,50.85
2023-02-11T11:28:14.986Z,49.51
2023-02-11T11:30:41.516Z,50.46
2023-02-11T11:33:07.885Z,49.23
2023-02-11T11:35:34.295Z,49.29
2023-02-11T11:38:01.922Z,50.02
2023-02-11T11:40:28.566Z,51.34
2023-02-11T11:42:54.949Z,49.62
2023-02-11T11:45:21.327Z,49.22
2023-02-11T11:47:47.713Z,48.67
2023-02-11T11:50:14.095Z,48.33
2023-02-11T11:52:40.514Z,50.53
2023-02-11T11:55:06.884Z,49.02
2023-02-11T11:57:33.285Z,48.35
2023-02-11T11:59:59.666Z,46.97
2023-02-11T12:02:26.185Z,46.19
2023-02-11T12:04:52.578Z,48.12
2023-02-11T12:07:18.955Z,52.15
2023-02-11T12:09:45.357Z,48.01
2023-02-11T12:12:11.795Z,47.39
2023-02-11T12:14:38.221Z,47.94
2023-02-11T12:17:04.596Z,49.39
2023-02-11T12:19:30.960Z,47.50
2023-02-11T12:21:57.325Z,48.05
2023-02-11T12:24:23.702Z,48.27
2023-02-11T12:26:50.096Z,47.46
2023-02-11T12:29:16.476Z,46.96
2023-02-11T12:31:42.921Z,47.72
2023-02-11T12:34:09.354Z,46.60
2023-02-11T12:36:35.733Z,46.29
2023-02-11T12:39:02.103Z,45.92
2023-02-11T12:41:28.498Z,46.40
2023-02-11T12:43:54.900Z,45.61
2023-02-11T12:46:21.355Z,45.84
2023-02-11T12:48:47.743Z,46.03
2023-02-11T12:51:14.108Z,43.89
2023-02-11T12:53:40.532Z,45.18
2023-02-11T12:56:06.936Z,45.99
2023-02-11T12:58:44.449Z,45.95
2023-02-11T13:01:12.008Z,46.63
2023-02-11T13:03:38.426Z,45.30
2023-02-11T13:06:04.825Z,44.63
2023-02-11T13:08:31.226Z,45.00
2023-02-11T13:10:57.628Z,46.78
2023-02-11T13:13:24.053Z,46.02
2023-02-11T13:15:50.459Z,45.06
2023-02-11T13:18:19.028Z,46.00
2023-02-11T13:20:45.631Z,46.40
2023-02-11T13:23:12.001Z,46.48
2023-02-11T13:25:38.354Z,44.63
2023-02-11T13:28:04.763Z,44.71
2023-02-11T13:30:31.205Z,44.93
2023-02-11T13:32:57.650Z,45.21
2023-02-11T13:35:24.044Z,45.95
2023-02-11T13:37:50.413Z,45.05
2023-02-11T13:40:16.850Z,44.42
2023-02-11T13:42:43.214Z,44.04
2023-02-11T13:45:09.586Z,43.07
2023-02-11T13:47:35.971Z,43.50
2023-02-11T13:50:02.372Z,43.44
2023-02-11T13:52:28.752Z,43.23
2023-02-11T13:54:55.184Z,42.50
2023-02-11T13:57:21.560Z,41.99
2023-02-11T13:59:47.932Z,41.68
2023-02-11T14:02:14.404Z,42.15
2023-02-11T14:04:40.862Z,42.04
2023-02-11T14:07:07.226Z,43.44
2023-02-11T14:09:33.624Z,42.17
2023-02-11T14:11:59.982Z,42.16
2023-02-11T14:14:26.387Z,42.98
2023-02-11T14:16:52.823Z,41.03
2023-02-11T14:19:19.238Z,40.79
2023-02-11T14:21:45.691Z,40.99
2023-02-11T14:24:12.077Z,40.12
2023-02-11T14:26:38.503Z,39.50
2023-02-11T14:29:04.885Z,38.77
2023-02-11T14:31:31.392Z,39.09
2023-02-11T14:33:57.908Z,39.54
2023-02-11T14:36:24.389Z,39.52
2023-02-11T14:38:50.782Z,39.41
2023-02-11T14:41:17.180Z,39.05
2023-02-11T14:43:43.603Z,40.08
2023-02-11T14:46:10.098Z,38.65
2023-02-11T14:48:36.555Z,38.07
2023-02-11T14:51:03.017Z,38.17
2023-02-11T14:53:29.446Z,38.12
2023-02-11T14:55:55.839Z,38.09
2023-02-11T14:58:22.244Z,39.24
2023-02-11T15:00:48.711Z,37.86
2023-02-11T15:03:15.169Z,38.07
2023-02-11T15:05:41.558Z,37.64
2023-02-11T15:08:09.974Z,38.90
2023-02-11T15:10:36.454Z,38.76
2023-02-11T15:13:02.841Z,38.63
2023-02-11T15:15:29.243Z,38.20
2023-02-11T15:17:55.628Z,37.92
2023-02-11T15:20:22.065Z,37.50
2023-02-11T15:22:48.448Z,36.47
2023-02-11T15:25:14.850Z,37.42
2023-02-11T15:27:41.311Z,36.15
2023-02-11T15:30:07.693Z,35.89
2023-02-11T15:32:34.105Z,36.56
2023-02-11T15:35:00.573Z,35.23
2023-02-11T15:37:26.961Z,35.08
2023-02-11T15:39:53.442Z,34.43
2023-02-11T15:42:19.842Z,35.21
2023-02-11T15:44:46.540Z,34.27
2023-02-11T15:47:14.353Z,35.20
2023-02-11T15:49:40.746Z,34.77
2023-02-11T15:52:07.317Z,34.27
2023-02-11T15:54:33.700Z,33.84
2023-02-11T15:57:00.144Z,35.32
2023-02-11T15:59:26.570Z,35.03
2023-02-11T16:01:53.012Z,35.49
2023-02-11T16:04:19.439Z,36.11
2023-02-11T16:06:45.865Z,35.94
2023-02-11T16:09:12.343Z,34.68
2023-02-11T16:11:39.096Z,34.80
2023-02-11T16:14:07.109Z,34.82
2023-02-11T16:16:33.663Z,35.68
2023-02-11T16:19:05.242Z,35.62
2023-02-11T16:21:32.337Z,34.95
2023-02-11T16:23:58.774Z,35.60
2023-02-11T16:26:25.171Z,36.47
2023-02-11T16:28:51.554Z,35.93
2023-02-11T16:31:18.163Z,37.37
2023-02-11T16:33:44.598Z,37.35
2023-02-11T16:36:11.025Z,36.06
2023-02-11T16:38:37.459Z,37.15
2023-02-11T16:41:03.861Z,36.66
2023-02-11T16:43:30.266Z,36.91
2023-02-11T16:45:56.641Z,37.63
2023-02-11T16:48:23.038Z,37.59
2023-02-11T16:50:52.888Z,38.17
2023-02-11T16:53:19.736Z,37.93
2023-02-11T16:55:46.129Z,38.75
2023-02-11T16:58:12.508Z,39.06
2023-02-11T17:00:38.923Z,40.75
2023-02-11T17:03:05.363Z,41.65
2023-02-11T17:05:37.823Z,41.33
2023-02-11T17:08:09.288Z,41.28
2023-02-11T17:10:35.661Z,42.45
2023-02-11T17:13:02.063Z,44.00
2023-02-11T17:15:28.461Z,42.71
2023-02-11T17:17:54.832Z,44.08
2023-02-11T17:20:21.223Z,44.47
2023-02-11T17:22:47.697Z,45.71
2023-02-11T17:25:14.109Z,44.32
2023-02-11T17:27:40.508Z,42.31
2023-02-11T17:30:06.949Z,42.95
2023-02-11T17:32:33.326Z,42.79
2023-02-11T17:34:59.774Z,43.00
2023-02-11T17:37:26.169Z,42.44
2023-02-11T17:39:52.534Z,41.98
2023-02-11T17:42:18.929Z,40.97
2023-02-11T17:44:45.338Z,42.10
2023-02-11T17:47:11.727Z,43.56
2023-02-11T17:49:38.106Z,43.51
2023-02-11T17:52:04.476Z,42.58
2023-02-11T17:54:30.849Z,43.23
2023-02-11T17:56:58.422Z,43.86
2023-02-11T17:59:25.052Z,43.54
2023-02-11T18:01:51.453Z,43.49
2023-02-11T18:04:17.920Z,43.52
2023-02-11T18:06:44.361Z,42.49
2023-02-11T18:09:10.746Z,41.56
2023-02-11T18:11:37.145Z,42.30
2023-02-11T18:14:03.573Z,42.86
2023-02-11T18:16:30.011Z,44.06
2023-02-11T18:18:56.451Z,43.75
2023-02-11T18:21:22.908Z,42.14
2023-02-11T18:23:49.290Z,40.98
2023-02-11T18:26:15.683Z,41.02
2023-02-11T18:28:45.265Z,41.34
2023-02-11T18:31:12.282Z,42.73
2023-02-11T18:33:38.734Z,41.31
2023-02-11T18:36:05.138Z,41.52
2023-02-11T18:38:31.522Z,42.94
2023-02-11T18:40:57.873Z,42.39
2023-02-11T18:43:24.291Z,42.88
2023-02-11T18:45:51.105Z,41.50
2023-02-11T18:48:17.758Z,41.10
2023-02-11T18:50:44.144Z,42.42
2023-02-11T18:53:10.569Z,42.61
2023-02-11T18:55:37.826Z,43.13
2023-02-11T18:58:04.192Z,43.43
2023-02-11T19:00:30.579Z,44.33
2023-02-11T19:02:56.960Z,44.55
2023-02-11T19:05:23.354Z,42.65
2023-02-11T19:07:49.732Z,42.83
2023-02-11T19:10:16.111Z,42.04
2023-02-11T19:12:42.568Z,43.35
2023-02-11T19:15:08.941Z,44.59
2023-02-11T19:17:35.355Z,44.24
2023-02-11T19:20:01.760Z,44.75
2023-02-11T19:22:28.173Z,44.31
2023-02-11T19:24:54.623Z,43.74
2023-02-11T19:27:20.989Z,44.20
2023-02-11T19:29:47.488Z,44.11
2023-02-11T19:32:13.905Z,42.26
2023-02-11T19:34:40.288Z,42.94
2023-02-11T19:37:06.688Z,42.79
2023-02-11T19:39:33.081Z,42.03
2023-02-11T19:41:59.478Z,43.32
2023-02-11T19:44:25.887Z,42.94
2023-02-11T19:46:52.292Z,44.23
2023-02-11T19:49:18.697Z,43.47
2023-02-11T19:51:45.082Z,45.71
2023-02-11T19:54:11.468Z,42.92
2023-02-11T19:56:37.870Z,43.77
2023-02-11T19:59:04.269Z,45.09
2023-02-11T20:01:30.743Z,43.47
2023-02-11T20:03:57.207Z,44.57
2023-02-11T20:06:23.650Z,43.83
2023-02-11T20:08:50.047Z,43.69
2023-02-11T20:11:16.448Z,45.16
2023-02-11T20:13:42.825Z,44.27
2023-02-11T20:16:09.317Z,45.69
2023-02-11T20:18:35.801Z,44.63
2023-02-11T20:21:02.189Z,45.90
2023-02-11T20:23:28.573Z,46.05
2023-02-11T20:25:54.956Z,48.14
2023-02-11T20:28:21.417Z,48.11
2023-02-11T20:30:47.799Z,48.08
2023-02-11T20:33:14.278Z,48.02
2023-02-11T20:35:40.662Z,46.66
2023-02-11T20:38:07.063Z,47.39
2023-02-11T20:40:33.448Z,47.27
2023-02-11T20:42:59.854Z,46.42
2023-02-11T20:45:26.280Z,47.41
2023-02-11T20:47:52.650Z,47.76
2023-02-11T20:50:19.061Z,46.87
2023-02-11T20:52:45.458Z,47.63
2023-02-11T20:55:11.829Z,45.16
2023-02-11T20:57:38.226Z,44.95
2023-02-11T21:00:04.604Z,44.79
2023-02-11T21:02:31.009Z,44.73
2023-02-11T21:04:57.411Z,44.32
2023-02-11T21:07:23.779Z,44.37
2023-02-11T21:09:50.170Z,45.44
2023-02-11T21:12:16.557Z,43.02
2023-02-11T21:14:42.977Z,42.79
2023-02-11T21:17:09.367Z,42.99
2023-02-11T21:19:35.789Z,43.41
2023-02-11T21:22:02.149Z,43.25
2023-02-11T21:24:28.509Z,42.91
2023-02-11T21:26:54.930Z,41.31
2023-02-11T21:29:21.321Z,41.47
2023-02-11T21:31:47.792Z,42.46
2023-02-11T21:34:14.211Z,41.49
2023-02-11T21:36:40.600Z,41.61
2023-02-11T21:39:07.052Z,42.34
2023-02-11T21:41:33.424Z,41.89
2023-02-11T21:43:59.805Z,40.41
2023-02-11T21:46:26.377Z,41.37
2023-02-11T21:48:52.754Z,40.96
2023-02-11T21:51:19.174Z,40.70
2023-02-11T21:53:45.583Z,42.17
2023-02-11T21:56:11.961Z,41.96
2023-02-11T21:58:38.398Z,40.69
2023-02-11T22:01:04.833Z,40.54
2023-02-11T22:03:31.235Z,42.00
2023-02-11T22:05:57.807Z,41.97
2023-02-11T22:08:24.324Z,41.96
2023-02-11T22:10:54.695Z,42.19
2023-02-11T22:13:21.069Z,40.45
2023-02-11T22:15:47.446Z,42.17
2023-02-11T22:18:14.611Z,43.62
2023-02-11T22:20:41.027Z,44.56
2023-02-11T22:23:07.413Z,41.70
2023-02-11T22:25:35.002Z,43.54
2023-02-11T22:28:01.419Z,42.99
2023-02-11T22:30:28.046Z,42.18
2023-02-11T22:32:54.472Z,43.69
2023-02-11T22:35:20.831Z,43.87
2023-02-11T22:37:47.247Z,43.71
2023-02-11T22:40:13.678Z,46.34
2023-02-11T22:42:40.068Z,45.45
2023-02-11T22:45:06.469Z,44.17
2023-02-11T22:47:32.884Z,44.81
2023-02-11T22:49:59.282Z,42.95
2023-02-11T22:52:25.679Z,42.90
2023-02-11T22:54:52.092Z,42.79
2023-02-11T22:57:18.708Z,43.03
2023-02-11T22:59:45.078Z,41.72
2023-02-11T23:02:11.665Z,40.44
2023-02-11T23:04:38.144Z,40.36
2023-02-11T23:07:05.669Z,41.55
2023-02-11T23:09:32.118Z,42.23
2023-02-11T23:11:58.477Z,42.78
2023-02-11T23:14:26.014Z,42.26
2023-02-11T23:16:52.486Z,41.36
2023-02-11T23:19:19.005Z,42.41
2023-02-11T23:21:45.393Z,42.75
2023-02-11T23:24:13.827Z,42.07
2023-02-11T23:26:40.768Z,41.41
2023-02-11T23:29:07.192Z,42.62
2023-02-11T23:31:33.702Z,41.54
2023-02-11T23:34:00.147Z,41.53
2023-02-11T23:36:26.574Z,41.09
2023-02-11T23:38:52.973Z,41.33
2023-02-11T23:41:19.435Z,43.11
2023-02-11T23:43:45.805Z,41.75
2023-02-11T23:46:12.305Z,42.62
2023-02-11T23:48:38.718Z,41.23
2023-02-11T23:51:05.074Z,41.65
2023-02-11T23:53:31.462Z,41.45
2023-02-11T23:55:57.826Z,41.29
2023-02-11T23:58:24.201Z,41.12
